Time;durP1;ratioP1;P1;durP2;ratioP2;P2;SDS_P1;SDS_P2;PMS_P1;PMS_P2;Temp;Humidity;BMP_temperature;BMP_pressure;BME280_temperature;BME280_humidity;BME280_pressure;Samples;Min_cycle;Max_cycle;Signal;HPM_P1;HPM_P2
2023/02/22 00:00:39;;;;;;;;;;;;;;;;;;5031590;28;20284;-88
2023/02/22 00:03:06;;;;;;;;;;;;;;;;;;5029734;28;19967;-88
2023/02/22 00:05:32;;;;;;;;;;;;;;;;;;5032107;28;20257;-88
2023/02/22 00:07:59;;;;;;;;;;;;;;;;;;5034209;28;19924;-88
2023/02/22 00:10:25;;;;;;;;;;;;;;;;;;5034260;28;19917;-88
2023/02/22 00:12:51;;;;;;;;;;;;;;;;;;5036180;28;20003;-88
2023/02/22 00:15:18;;;;;;;;;;;;;;;;;;5037452;28;19952;-88
2023/02/22 00:17:43;;;;;;;;;;;;;;;;;;5034496;28;19920;-88
2023/02/22 00:20:13;;;;;;;;;;;;;;;;;;5033020;28;20030;-89
2023/02/22 00:22:41;;;;;;;;;;;;;;;;;;5029988;28;19917;-87
2023/02/22 00:25:07;;;;;;;;;;;;;;;;;;5034240;28;19921;-87
2023/02/22 00:27:33;;;;;;;;;;;;;;;;;;5033380;28;19974;-87
2023/02/22 00:29:58;;;;;;;;;;;;;;;;;;5035611;28;20001;-87
2023/02/22 00:32:24;;;;;;;;;;;;;;;;;;5035057;28;19925;-88
2023/02/22 00:34:53;;;;;;;;;;;;;;;;;;5036310;28;19924;-88
2023/02/22 00:37:19;;;;;;;;;;;;;;;;;;5033101;28;19920;-88
2023/02/22 00:39:48;;;;;;;;;;;;;;;;;;5033366;28;19917;-89
2023/02/22 00:42:14;;;;;;;;;;;;;;;;;;5033060;28;20082;-87
2023/02/22 00:44:39;;;;;;;;;;;;;;;;;;5033986;28;20015;-88
2023/02/22 00:47:04;;;;;;;;;;;;;;;;;;5034399;28;19924;-87
2023/02/22 00:49:30;;;;;;;;;;;;;;;;;;5035488;28;20380;-88
2023/02/22 00:51:55;;;;;;;;;;;;;;;;;;5035167;28;20277;-88
2023/02/22 00:54:21;;;;;;;;;;;;;;;;;;5034429;28;19924;-88
2023/02/22 00:56:46;;;;;;;;;;;;;;;;;;5032876;28;19924;-88
2023/02/22 00:59:11;;;;;;;;;;;;;;;;;;5033155;28;19964;-88
2023/02/22 01:01:37;;;;;;;;;;;;;;;;;;5035011;28;20376;-87
2023/02/22 01:04:02;;;;;;;;;;;;;;;;;;5032551;28;19921;-86
2023/02/22 01:06:28;;;;;;;;;;;;;;;;;;5034273;28;19924;-87
2023/02/22 01:08:53;;;;;;;;;;;;;;;;;;5033281;28;20284;-86
2023/02/22 01:11:21;;;;;;;;;;;;;;;;;;5035137;28;19959;-88
2023/02/22 01:13:46;;;;;;;;;;;;;;;;;;5031509;28;19963;-88
2023/02/22 01:16:12;;;;;;;;;;;;;;;;;;5041809;28;19956;-88
2023/02/22 01:18:37;;;;;;;;;;;;;;;;;;5032716;28;20292;-88
2023/02/22 01:21:03;;;;;;;;;;;;;;;;;;5030186;28;19921;-87
2023/02/22 01:23:29;;;;;;;;;;;;;;;;;;5031038;28;19917;-88
2023/02/22 01:25:55;;;;;;;;;;;;;;;;;;5046214;28;20261;-87
2023/02/22 01:28:21;;;;;;;;;;;;;;;;;;5032548;28;19917;-88
2023/02/22 01:30:47;;;;;;;;;;;;;;;;;;5033877;28;20391;-88
2023/02/22 01:33:12;;;;;;;;;;;;;;;;;;5034779;28;19921;-88
2023/02/22 01:35:41;;;;;;;;;;;;;;;;;;5033285;28;19921;-87
2023/02/22 01:38:07;;;;;;;;;;;;;;;;;;5032882;28;19917;-89
2023/02/22 01:40:34;;;;;;;;;;;;;;;;;;5033132;28;19929;-87
2023/02/22 01:43:01;;;;;;;;;;;;;;;;;;5033761;28;19917;-88
2023/02/22 01:45:31;;;;;;;;;;;;;;;;;;5034389;28;20402;-88
2023/02/22 01:48:17;;;;;;;;;;;;;;;;;;5014611;28;19917;-88
2023/02/22 01:50:57;;;;;;;;;;;;;;;;;;5011506;28;20269;-87
2023/02/22 01:53:24;;;;;;;;;;;;;;;;;;5039507;28;19906;-87
2023/02/22 01:55:50;;;;;;;;;;;;;;;;;;5048948;28;19918;-88
2023/02/22 01:58:16;;;;;;;;;;;;;;;;;;5059235;28;19905;-88
2023/02/22 02:00:43;;;;;;;;;;;;;;;;;;5039557;28;19919;-88
2023/02/22 02:03:13;;;;;;;;;;;;;;;;;;5032109;28;19918;-89
2023/02/22 02:05:39;;;;;;;;;;;;;;;;;;5029524;28;19917;-88
2023/02/22 02:08:12;;;;;;;;;;;;;;;;;;5033230;28;20305;-88
2023/02/22 02:10:38;;;;;;;;;;;;;;;;;;5022883;28;20328;-90
2023/02/22 02:13:03;;;;;;;;;;;;;;;;;;5030692;28;19971;-89
2023/02/22 02:15:30;;;;;;;;;;;;;;;;;;5030004;28;20360;-88
2023/02/22 02:18:00;;;;;;;;;;;;;;;;;;5031162;28;19975;-90
2023/02/22 02:20:28;;;;;;;;;;;;;;;;;;5033668;28;19963;-87
2023/02/22 02:22:54;;;;;;;;;;;;;;;;;;5034496;28;19918;-88
2023/02/22 02:25:38;;;;;;;;;;;;;;;;;;5034391;28;19917;-87
2023/02/22 02:28:08;;;;;;;;;;;;;;;;;;5032305;28;20448;-88
2023/02/22 02:30:53;;;;;;;;;;;;;;;;;;5033632;28;20360;-86
2023/02/22 02:33:18;;;;;;;;;;;;;;;;;;5042514;28;19931;-87
2023/02/22 02:35:49;;;;;;;;;;;;;;;;;;5031850;28;19917;-89
2023/02/22 02:38:21;;;;;;;;;;;;;;;;;;5030070;28;19923;-88
2023/02/22 02:40:49;;;;;;;;;;;;;;;;;;5028482;28;19967;-88
2023/02/22 02:43:25;;;;;;;;;;;;;;;;;;5044306;28;20077;-88
2023/02/22 02:45:56;;;;;;;;;;;;;;;;;;5027795;28;19971;-88
2023/02/22 02:48:24;;;;;;;;;;;;;;;;;;5030384;28;20024;-88
2023/02/22 02:50:50;;;;;;;;;;;;;;;;;;5025246;28;20387;-88
2023/02/22 02:53:18;;;;;;;;;;;;;;;;;;5029771;28;20000;-89
2023/02/22 02:55:43;;;;;;;;;;;;;;;;;;5028719;28;19917;-87
2023/02/22 02:58:15;;;;;;;;;;;;;;;;;;5031648;28;19917;-88
2023/02/22 03:00:40;;;;;;;;;;;;;;;;;;5029398;28;20446;-88
2023/02/22 03:03:29;;;;;;;;;;;;;;;;;;5045241;28;19921;-88
2023/02/22 03:05:58;;;;;;;;;;;;;;;;;;5029409;28;20607;-88
2023/02/22 03:08:50;;;;;;;;;;;;;;;;;;5026222;28;20296;-88
2023/02/22 03:11:23;;;;;;;;;;;;;;;;;;5013313;28;20927;-89
2023/02/22 03:14:06;;;;;;;;;;;;;;;;;;5029407;28;19917;-88
2023/02/22 03:16:50;;;;;;;;;;;;;;;;;;5028416;28;19913;-87
2023/02/22 03:19:16;;;;;;;;;;;;;;;;;;5046495;28;19917;-88
2023/02/22 03:22:01;;;;;;;;;;;;;;;;;;5033662;28;19913;-87
2023/02/22 03:24:27;;;;;;;;;;;;;;;;;;5029932;28;20372;-88
2023/02/22 03:26:56;;;;;;;;;;;;;;;;;;5032186;28;19932;-87
2023/02/22 03:29:23;;;;;;;;;;;;;;;;;;5034718;28;19925;-87
2023/02/22 03:32:00;;;;;;;;;;;;;;;;;;5032949;28;19967;-89
2023/02/22 03:34:31;;;;;;;;;;;;;;;;;;5035454;28;20409;-89
2023/02/22 03:37:14;;;;;;;;;;;;;;;;;;5044541;28;20011;-90
2023/02/22 03:39:40;;;;;;;;;;;;;;;;;;5021626;28;19917;-89
2023/02/22 03:42:08;;;;;;;;;;;;;;;;;;5029694;28;19928;-86
2023/02/22 03:44:36;;;;;;;;;;;;;;;;;;5034374;28;19971;-90
2023/02/22 03:47:05;;;;;;;;;;;;;;;;;;5035549;28;20391;-89
2023/02/22 03:49:39;;;;;;;;;;;;;;;;;;5033150;28;19923;-90
2023/02/22 03:52:05;;;;;;;;;;;;;;;;;;5039417;28;20280;-89
2023/02/22 03:54:31;;;;;;;;;;;;;;;;;;5030399;28;19964;-89
2023/02/22 03:56:59;;;;;;;;;;;;;;;;;;5035288;28;19921;-89
2023/02/22 03:59:26;;;;;;;;;;;;;;;;;;5033828;28;19917;-88
2023/02/22 04:01:52;;;;;;;;;;;;;;;;;;5033774;28;19924;-88
2023/02/22 04:04:17;;;;;;;;;;;;;;;;;;5034734;28;20422;-88
2023/02/22 04:06:43;;;;;;;;;;;;;;;;;;5035654;28;19925;-89
2023/02/22 04:09:09;;;;;;;;;;;;;;;;;;5036921;28;19943;-89
2023/02/22 04:11:34;;;;;;;;;;;;;;;;;;5033907;28;19924;-87
2023/02/22 04:14:00;;;;;;;;;;;;;;;;;;5033134;28;19953;-89
2023/02/22 04:16:25;;;;;;;;;;;;;;;;;;5030935;28;20382;-89
2023/02/22 04:18:50;;;;;;;;;;;;;;;;;;5031530;28;19920;-87
2023/02/22 04:21:16;;;;;;;;;;;;;;;;;;5030721;28;19921;-89
2023/02/22 04:23:41;;;;;;;;;;;;;;;;;;5031482;28;19917;-88
2023/02/22 04:26:07;;;;;;;;;;;;;;;;;;5028931;28;19917;-89
2023/02/22 04:28:32;;;;;;;;;;;;;;;;;;5032386;28;19921;-87
2023/02/22 04:30:57;;;;;;;;;;;;;;;;;;5033726;28;19918;-88
2023/02/22 04:33:23;;;;;;;;;;;;;;;;;;5035354;28;20048;-89
2023/02/22 04:35:48;;;;;;;;;;;;;;;;;;5034338;28;19921;-88
2023/02/22 04:38:14;;;;;;;;;;;;;;;;;;5034553;28;19917;-88
2023/02/22 04:40:39;;;;;;;;;;;;;;;;;;5030611;28;19917;-88
2023/02/22 04:43:05;;;;;;;;;;;;;;;;;;5036048;28;19963;-87
2023/02/22 04:45:30;;;;;;;;;;;;;;;;;;5035390;28;20012;-88
2023/02/22 04:47:56;;;;;;;;;;;;;;;;;;5030130;28;19917;-89
2023/02/22 04:50:21;;;;;;;;;;;;;;;;;;5031901;28;20327;-88
2023/02/22 04:52:47;;;;;;;;;;;;;;;;;;5024347;28;19932;-88
2023/02/22 04:55:12;;;;;;;;;;;;;;;;;;5014152;28;19914;-87
2023/02/22 04:57:37;;;;;;;;;;;;;;;;;;5014092;28;19922;-88
2023/02/22 05:00:04;;;;;;;;;;;;;;;;;;5029217;28;19923;-89
2023/02/22 05:02:30;;;;;;;;;;;;;;;;;;5012817;28;19917;-88
2023/02/22 05:04:55;;;;;;;;;;;;;;;;;;5031264;28;20016;-87
2023/02/22 05:07:20;;;;;;;;;;;;;;;;;;5016666;28;20361;-88
2023/02/22 05:09:46;;;;;;;;;;;;;;;;;;5014474;28;19918;-87
2023/02/22 05:12:11;;;;;;;;;;;;;;;;;;5014608;28;19917;-86
2023/02/22 05:14:37;;;;;;;;;;;;;;;;;;5031100;28;19918;-87
2023/02/22 05:17:02;;;;;;;;;;;;;;;;;;5016834;28;20008;-87
2023/02/22 05:19:28;;;;;;;;;;;;;;;;;;5035079;28;19941;-87
2023/02/22 05:21:55;;;;;;;;;;;;;;;;;;5036288;28;19917;-85
2023/02/22 05:24:21;;;;;;;;;;;;;;;;;;5034279;28;19917;-85
2023/02/22 05:26:46;;;;;;;;;;;;;;;;;;5033887;28;19917;-85
2023/02/22 05:29:12;;;;;;;;;;;;;;;;;;5035149;28;19921;-84
2023/02/22 05:31:38;;;;;;;;;;;;;;;;;;5033971;28;19975;-85
2023/02/22 05:34:03;;;;;;;;;;;;;;;;;;5035109;28;19916;-87
2023/02/22 05:36:29;;;;;;;;;;;;;;;;;;5033794;28;19921;-84
2023/02/22 05:39:04;;;;;;;;;;;;;;;;;;5036298;28;20368;-87
2023/02/22 05:41:29;;;;;;;;;;;;;;;;;;5033820;28;19950;-85
2023/02/22 05:43:55;;;;;;;;;;;;;;;;;;5042339;28;19921;-88
2023/02/22 05:46:20;;;;;;;;;;;;;;;;;;5054345;28;19924;-88
2023/02/22 05:48:45;;;;;;;;;;;;;;;;;;5054365;28;20360;-86
2023/02/22 05:51:11;;;;;;;;;;;;;;;;;;5054406;28;19920;-88
2023/02/22 05:53:36;;;;;;;;;;;;;;;;;;5054254;28;19928;-87
2023/02/22 05:56:02;;;;;;;;;;;;;;;;;;5053069;28;19920;-86
2023/02/22 05:58:27;;;;;;;;;;;;;;;;;;5054319;28;19962;-87
2023/02/22 06:00:52;;;;;;;;;;;;;;;;;;5054292;28;19920;-84
2023/02/22 06:03:18;;;;;;;;;;;;;;;;;;5053394;28;20374;-87
2023/02/22 06:05:43;;;;;;;;;;;;;;;;;;5062829;28;19927;-86
2023/02/22 06:08:09;;;;;;;;;;;;;;;;;;5077263;28;19986;-85
2023/02/22 06:10:34;;;;;;;;;;;;;;;;;;5074589;28;19919;-86
2023/02/22 06:13:00;;;;;;;;;;;;;;;;;;5077490;28;19917;-85
2023/02/22 06:15:26;;;;;;;;;;;;;;;;;;5072236;28;19920;-87
2023/02/22 06:17:52;;;;;;;;;;;;;;;;;;5062230;28;19912;-86
2023/02/22 06:20:18;;;;;;;;;;;;;;;;;;5054289;28;19964;-88
2023/02/22 06:22:46;;;;;;;;;;;;;;;;;;5054663;28;19913;-88
2023/02/22 06:25:12;;;;;;;;;;;;;;;;;;5052760;28;20024;-88
2023/02/22 06:27:37;;;;;;;;;;;;;;;;;;5054361;28;19917;-87
2023/02/22 06:30:03;;;;;;;;;;;;;;;;;;5053823;28;19931;-88
2023/02/22 06:32:28;;;;;;;;;;;;;;;;;;5052881;28;19917;-89
2023/02/22 06:34:54;;;;;;;;;;;;;;;;;;5052367;28;19928;-88
2023/02/22 06:37:19;;;;;;;;;;;;;;;;;;5056119;28;20012;-88
2023/02/22 06:39:44;;;;;;;;;;;;;;;;;;5042494;28;19940;-86
2023/02/22 06:42:10;;;;;;;;;;;;;;;;;;5034204;28;19921;-88
2023/02/22 06:44:35;;;;;;;;;;;;;;;;;;5034097;28;19921;-84
2023/02/22 06:47:00;;;;;;;;;;;;;;;;;;5034444;28;19917;-85
2023/02/22 06:49:26;;;;;;;;;;;;;;;;;;5033817;28;19927;-84
2023/02/22 06:51:52;;;;;;;;;;;;;;;;;;5032645;28;19917;-85
2023/02/22 06:54:17;;;;;;;;;;;;;;;;;;5036201;28;19929;-86
2023/02/22 06:56:42;;;;;;;;;;;;;;;;;;5037922;28;20428;-85
2023/02/22 06:59:08;;;;;;;;;;;;;;;;;;5038036;28;19928;-85
2023/02/22 07:01:33;;;;;;;;;;;;;;;;;;5036769;28;19979;-85
2023/02/22 07:03:59;;;;;;;;;;;;;;;;;;5037800;28;19928;-85
2023/02/22 07:06:24;;;;;;;;;;;;;;;;;;5037905;28;19956;-87
2023/02/22 07:08:49;;;;;;;;;;;;;;;;;;5036720;28;19960;-85
2023/02/22 07:11:15;;;;;;;;;;;;;;;;;;5037856;28;19928;-87
2023/02/22 07:13:41;;;;;;;;;;;;;;;;;;5036443;28;20058;-85
2023/02/22 07:16:06;;;;;;;;;;;;;;;;;;5037679;28;19952;-87
2023/02/22 07:18:32;;;;;;;;;;;;;;;;;;5036279;28;19999;-86
2023/02/22 07:20:57;;;;;;;;;;;;;;;;;;5037563;28;19924;-87
2023/02/22 07:23:23;;;;;;;;;;;;;;;;;;5038065;28;19929;-87
2023/02/22 07:25:48;;;;;;;;;;;;;;;;;;5037798;28;19921;-85
2023/02/22 07:28:14;;;;;;;;;;;;;;;;;;5037491;28;19921;-86
2023/02/22 07:30:39;;;;;;;;;;;;;;;;;;5035951;28;19948;-87
2023/02/22 07:33:09;;;;;;;;;;;;;;;;;;5036092;28;19924;-86
2023/02/22 07:35:36;;;;;;;;;;;;;;;;;;5037356;28;19977;-85
2023/02/22 07:38:02;;;;;;;;;;;;;;;;;;5037078;28;19924;-86
2023/02/22 07:40:28;;;;;;;;;;;;;;;;;;5051040;28;19921;-86
2023/02/22 07:42:55;;;;;;;;;;;;;;;;;;5056968;28;20004;-86
2023/02/22 07:45:21;;;;;;;;;;;;;;;;;;5057008;28;20340;-86
2023/02/22 07:47:47;;;;;;;;;;;;;;;;;;5056999;28;20376;-86
2023/02/22 07:50:13;;;;;;;;;;;;;;;;;;5056590;28;19932;-86
2023/02/22 07:52:39;;;;;;;;;;;;;;;;;;5057784;28;19923;-86
2023/02/22 07:55:05;;;;;;;;;;;;;;;;;;5057728;28;20299;-86
2023/02/22 07:57:31;;;;;;;;;;;;;;;;;;5055860;28;19924;-86
2023/02/22 07:59:56;;;;;;;;;;;;;;;;;;5056479;28;19920;-87
2023/02/22 08:02:23;;;;;;;;;;;;;;;;;;5056782;28;19924;-88
2023/02/22 08:04:49;;;;;;;;;;;;;;;;;;5054794;28;19928;-86
2023/02/22 08:07:14;;;;;;;;;;;;;;;;;;5056690;28;19917;-87
2023/02/22 08:09:39;;;;;;;;;;;;;;;;;;5056537;28;19921;-87
2023/02/22 08:12:05;;;;;;;;;;;;;;;;;;5054897;28;19943;-86
2023/02/22 08:14:31;;;;;;;;;;;;;;;;;;5054865;28;19992;-85
2023/02/22 08:16:56;;;;;;;;;;;;;;;;;;5055148;28;19925;-88
2023/02/22 08:19:21;;;;;;;;;;;;;;;;;;5056371;28;19964;-85
2023/02/22 08:21:47;;;;;;;;;;;;;;;;;;5056248;28;19917;-86
2023/02/22 08:24:12;;;;;;;;;;;;;;;;;;5056177;28;19979;-88
2023/02/22 08:26:43;;;;;;;;;;;;;;;;;;5055937;28;19962;-86
2023/02/22 08:29:09;;;;;;;;;;;;;;;;;;5057308;28;20016;-86
2023/02/22 08:31:34;;;;;;;;;;;;;;;;;;5056073;28;19982;-87
2023/02/22 08:33:59;;;;;;;;;;;;;;;;;;5055872;28;19921;-85
2023/02/22 08:36:26;;;;;;;;;;;;;;;;;;5055966;28;19917;-87
2023/02/22 08:38:51;;;;;;;;;;;;;;;;;;5055721;28;19921;-86
2023/02/22 08:41:16;;;;;;;;;;;;;;;;;;5055936;28;20407;-86
2023/02/22 08:43:42;;;;;;;;;;;;;;;;;;5054478;28;19928;-86
2023/02/22 08:46:07;;;;;;;;;;;;;;;;;;5056053;28;19924;-86
2023/02/22 08:48:33;;;;;;;;;;;;;;;;;;5055746;28;19986;-85
2023/02/22 08:50:58;;;;;;;;;;;;;;;;;;5054337;28;19960;-86
2023/02/22 08:53:23;;;;;;;;;;;;;;;;;;5055489;28;20000;-85
2023/02/22 08:55:49;;;;;;;;;;;;;;;;;;5055697;28;19923;-85
2023/02/22 08:58:14;;;;;;;;;;;;;;;;;;5055313;28;19917;-86
2023/02/22 09:00:40;;;;;;;;;;;;;;;;;;5055517;28;19917;-86
2023/02/22 09:03:07;;;;;;;;;;;;;;;;;;5055556;28;19943;-86
2023/02/22 09:05:33;;;;;;;;;;;;;;;;;;5055377;28;19921;-86
2023/02/22 09:07:58;;;;;;;;;;;;;;;;;;5055350;28;20000;-85
2023/02/22 09:10:26;;;;;;;;;;;;;;;;;;5055144;28;19924;-87
2023/02/22 09:12:51;;;;;;;;;;;;;;;;;;5055445;28;19916;-86
2023/02/22 09:15:17;;;;;;;;;;;;;;;;;;5053924;28;19993;-86
2023/02/22 09:17:43;;;;;;;;;;;;;;;;;;5053843;28;19921;-86
2023/02/22 09:20:11;;;;;;;;;;;;;;;;;;5053446;28;19921;-86
2023/02/22 09:22:37;;;;;;;;;;;;;;;;;;5053887;28;19920;-87
2023/02/22 09:25:02;;;;;;;;;;;;;;;;;;5054850;28;20015;-85
2023/02/22 09:27:28;;;;;;;;;;;;;;;;;;5054958;28;20007;-87
2023/02/22 09:29:55;;;;;;;;;;;;;;;;;;5055498;28;19924;-87
2023/02/22 09:32:20;;;;;;;;;;;;;;;;;;5054952;28;19923;-87
2023/02/22 09:34:46;;;;;;;;;;;;;;;;;;5054025;28;19921;-86
2023/02/22 09:37:12;;;;;;;;;;;;;;;;;;5055304;28;20331;-86
2023/02/22 09:39:38;;;;;;;;;;;;;;;;;;5054702;28;19920;-87
2023/02/22 09:42:18;;;;;;;;;;;;;;;;;;5054492;28;19928;-86
2023/02/22 09:44:52;;;;;;;;;;;;;;;;;;5054673;28;20375;-86
2023/02/22 09:47:19;;;;;;;;;;;;;;;;;;5054758;28;19927;-86
2023/02/22 09:49:56;;;;;;;;;;;;;;;;;;5052973;28;19951;-86
2023/02/22 09:52:27;;;;;;;;;;;;;;;;;;5054359;28;19958;-86
2023/02/22 09:55:06;;;;;;;;;;;;;;;;;;5054442;28;19959;-85
2023/02/22 09:57:34;;;;;;;;;;;;;;;;;;5054529;28;20003;-85
2023/02/22 10:00:18;;;;;;;;;;;;;;;;;;5041221;28;19921;-85
2023/02/22 10:03:02;;;;;;;;;;;;;;;;;;5034671;28;19963;-85
2023/02/22 10:05:32;;;;;;;;;;;;;;;;;;5035056;28;19917;-85
2023/02/22 10:08:04;;;;;;;;;;;;;;;;;;5043274;28;19940;-86
2023/02/22 10:10:38;;;;;;;;;;;;;;;;;;5054495;28;19965;-87
2023/02/22 10:13:13;;;;;;;;;;;;;;;;;;5054362;28;20455;-86
2023/02/22 10:15:44;;;;;;;;;;;;;;;;;;5055929;28;19921;-85
2023/02/22 10:18:19;;;;;;;;;;;;;;;;;;5029416;28;19948;-85
2023/02/22 10:20:48;;;;;;;;;;;;;;;;;;5027662;28;19930;-85
2023/02/22 10:23:22;;;;;;;;;;;;;;;;;;5022645;28;19925;-86
2023/02/22 10:25:52;;;;;;;;;;;;;;;;;;5033957;28;19921;-85
2023/02/22 10:28:19;;;;;;;;;;;;;;;;;;5032295;28;20371;-86
2023/02/22 10:30:57;;;;;;;;;;;;;;;;;;5032871;28;20403;-86
2023/02/22 10:33:25;;;;;;;;;;;;;;;;;;5034450;28;20107;-85
2023/02/22 10:35:52;;;;;;;;;;;;;;;;;;5034146;28;20363;-85
2023/02/22 10:38:25;;;;;;;;;;;;;;;;;;5034106;28;19921;-85
2023/02/22 10:41:02;;;;;;;;;;;;;;;;;;5033925;28;19967;-86
2023/02/22 10:43:28;;;;;;;;;;;;;;;;;;5034257;28;19921;-85
2023/02/22 10:45:55;;;;;;;;;;;;;;;;;;5034010;28;19925;-87
2023/02/22 10:48:22;;;;;;;;;;;;;;;;;;5033867;28;19956;-85
2023/02/22 10:50:49;;;;;;;;;;;;;;;;;;5033882;28;19924;-86
2023/02/22 10:53:14;;;;;;;;;;;;;;;;;;5033931;28;19951;-86
2023/02/22 10:56:00;;;;;;;;;;;;;;;;;;5033903;28;19921;-86
2023/02/22 10:58:25;;;;;;;;;;;;;;;;;;5029841;28;19921;-86
2023/02/22 11:00:51;;;;;;;;;;;;;;;;;;5033778;28;19962;-86
2023/02/22 11:03:18;;;;;;;;;;;;;;;;;;5033755;28;20039;-86
2023/02/22 11:05:44;;;;;;;;;;;;;;;;;;5049275;28;19921;-85
2023/02/22 11:08:15;;;;;;;;;;;;;;;;;;5053890;28;20371;-87
2023/02/22 11:10:42;;;;;;;;;;;;;;;;;;5051956;28;19920;-86
2023/02/22 11:13:24;;;;;;;;;;;;;;;;;;5052453;28;19921;-86
2023/02/22 11:15:50;;;;;;;;;;;;;;;;;;5051724;28;19913;-85
2023/02/22 11:18:23;;;;;;;;;;;;;;;;;;5030526;28;20340;-86
2023/02/22 11:20:57;;;;;;;;;;;;;;;;;;5027614;28;20004;-86
2023/02/22 11:23:23;;;;;;;;;;;;;;;;;;5027668;28;19921;-86
2023/02/22 11:25:50;;;;;;;;;;;;;;;;;;5029161;28;20937;-86
2023/02/22 11:28:19;;;;;;;;;;;;;;;;;;5029544;28;19948;-86
2023/02/22 11:30:48;;;;;;;;;;;;;;;;;;5048130;28;19917;-86
2023/02/22 11:33:24;;;;;;;;;;;;;;;;;;5031869;28;19948;-86
2023/02/22 11:35:51;;;;;;;;;;;;;;;;;;5033018;28;19924;-87
2023/02/22 11:38:24;;;;;;;;;;;;;;;;;;5031441;28;19928;-86
2023/02/22 11:41:08;;;;;;;;;;;;;;;;;;5034378;28;20003;-86
2023/02/22 11:43:34;;;;;;;;;;;;;;;;;;5034537;28;20402;-87
2023/02/22 11:46:08;;;;;;;;;;;;;;;;;;5035057;28;19921;-86
2023/02/22 11:48:35;;;;;;;;;;;;;;;;;;5036786;28;19918;-85
2023/02/22 11:51:00;;;;;;;;;;;;;;;;;;5036888;28;19921;-86
2023/02/22 11:53:45;;;;;;;;;;;;;;;;;;5035623;28;19917;-86
2023/02/22 11:56:17;;;;;;;;;;;;;;;;;;5035456;28;19928;-86
2023/02/22 11:58:47;;;;;;;;;;;;;;;;;;5036817;28;19977;-86
2023/02/22 12:01:20;;;;;;;;;;;;;;;;;;5036801;28;19975;-87
2023/02/22 12:03:49;;;;;;;;;;;;;;;;;;5036762;28;19917;-86
2023/02/22 12:06:27;;;;;;;;;;;;;;;;;;5035477;28;19925;-85
2023/02/22 12:09:12;;;;;;;;;;;;;;;;;;5036776;28;19917;-85
2023/02/22 12:11:38;;;;;;;;;;;;;;;;;;5034781;28;19921;-86
2023/02/22 12:14:10;;;;;;;;;;;;;;;;;;5036435;28;20511;-87
2023/02/22 12:16:45;;;;;;;;;;;;;;;;;;5036529;28;19921;-86
2023/02/22 12:19:18;;;;;;;;;;;;;;;;;;5036467;28;19917;-85
2023/02/22 12:21:46;;;;;;;;;;;;;;;;;;5036449;28;19956;-86
2023/02/22 12:24:17;;;;;;;;;;;;;;;;;;5034937;28;20299;-87
2023/02/22 12:26:46;;;;;;;;;;;;;;;;;;5036905;28;19928;-87
2023/02/22 12:29:29;;;;;;;;;;;;;;;;;;5036319;28;19924;-85
2023/02/22 12:32:07;;;;;;;;;;;;;;;;;;5035168;28;19952;-85
2023/02/22 12:34:40;;;;;;;;;;;;;;;;;;5036254;28;19917;-85
2023/02/22 12:37:08;;;;;;;;;;;;;;;;;;5036012;28;19917;-86
2023/02/22 12:39:37;;;;;;;;;;;;;;;;;;5035949;28;19961;-84
2023/02/22 12:42:04;;;;;;;;;;;;;;;;;;5036207;28;19975;-84
2023/02/22 12:44:32;;;;;;;;;;;;;;;;;;5034573;28;20281;-84
2023/02/22 12:47:00;;;;;;;;;;;;;;;;;;5016117;28;19918;-85
2023/02/22 12:49:38;;;;;;;;;;;;;;;;;;5014592;28;20361;-84
2023/02/22 12:52:03;;;;;;;;;;;;;;;;;;5013789;28;20335;-85
2023/02/22 12:54:44;;;;;;;;;;;;;;;;;;5016008;28;19917;-85
2023/02/22 12:57:21;;;;;;;;;;;;;;;;;;5014686;28;19921;-84
2023/02/22 12:59:51;;;;;;;;;;;;;;;;;;5017513;28;19924;-85
2023/02/22 13:02:28;;;;;;;;;;;;;;;;;;5036059;28;19982;-84
2023/02/22 13:04:53;;;;;;;;;;;;;;;;;;5034584;28;19925;-84
2023/02/22 13:07:28;;;;;;;;;;;;;;;;;;5036026;28;19986;-84
2023/02/22 13:10:02;;;;;;;;;;;;;;;;;;5035200;28;20054;-84
2023/02/22 13:12:39;;;;;;;;;;;;;;;;;;5034002;28;20447;-86
2023/02/22 13:15:24;;;;;;;;;;;;;;;;;;5035440;28;19921;-85
2023/02/22 13:18:04;;;;;;;;;;;;;;;;;;5034014;28;20349;-85
2023/02/22 13:20:42;;;;;;;;;;;;;;;;;;5035297;28;20421;-85
2023/02/22 13:23:13;;;;;;;;;;;;;;;;;;5035110;28;19917;-85
2023/02/22 13:26:03;;;;;;;;;;;;;;;;;;5035065;28;19928;-85
2023/02/22 13:28:31;;;;;;;;;;;;;;;;;;5033930;28;20011;-85
2023/02/22 13:31:15;;;;;;;;;;;;;;;;;;5035042;28;19921;-85
2023/02/22 13:33:59;;;;;;;;;;;;;;;;;;5033681;28;20012;-85
2023/02/22 13:36:47;;;;;;;;;;;;;;;;;;5034832;28;19921;-85
2023/02/22 13:39:13;;;;;;;;;;;;;;;;;;5033727;28;19927;-85
2023/02/22 13:41:38;;;;;;;;;;;;;;;;;;5033165;28;20363;-87
2023/02/22 13:44:04;;;;;;;;;;;;;;;;;;5033327;28;19917;-86
2023/02/22 13:46:42;;;;;;;;;;;;;;;;;;5045991;28;19990;-85
2023/02/22 13:49:26;;;;;;;;;;;;;;;;;;5023982;28;19921;-85
2023/02/22 13:51:57;;;;;;;;;;;;;;;;;;5046037;28;20003;-86
2023/02/22 13:54:46;;;;;;;;;;;;;;;;;;5056719;28;20447;-85
2023/02/22 13:57:23;;;;;;;;;;;;;;;;;;5071597;28;19905;-85
2023/02/22 14:00:09;;;;;;;;;;;;;;;;;;5072651;28;20324;-85
2023/02/22 14:02:53;;;;;;;;;;;;;;;;;;5074103;28;19920;-85
2023/02/22 14:05:35;;;;;;;;;;;;;;;;;;5059574;28;19917;-85
2023/02/22 14:08:01;;;;;;;;;;;;;;;;;;5053666;28;19940;-85
2023/02/22 14:10:49;;;;;;;;;;;;;;;;;;5054625;28;19921;-84
2023/02/22 14:13:19;;;;;;;;;;;;;;;;;;5051289;28;19971;-84
2023/02/22 14:15:56;;;;;;;;;;;;;;;;;;5053958;28;20332;-85
2023/02/22 14:18:22;;;;;;;;;;;;;;;;;;5054163;28;19917;-85
2023/02/22 14:21:03;;;;;;;;;;;;;;;;;;5053811;28;19928;-85
2023/02/22 14:23:31;;;;;;;;;;;;;;;;;;5054344;28;20302;-85
2023/02/22 14:26:09;;;;;;;;;;;;;;;;;;5052194;28;19921;-87
2023/02/22 14:28:34;;;;;;;;;;;;;;;;;;5054503;28;19917;-85
2023/02/22 14:31:11;;;;;;;;;;;;;;;;;;5052409;28;19924;-84
2023/02/22 14:34:00;;;;;;;;;;;;;;;;;;5053980;28;19970;-84
2023/02/22 14:36:30;;;;;;;;;;;;;;;;;;5053685;28;19969;-84
2023/02/22 14:39:01;;;;;;;;;;;;;;;;;;5053872;28;19916;-85
2023/02/22 14:41:28;;;;;;;;;;;;;;;;;;5053492;28;19921;-84
2023/02/22 14:43:55;;;;;;;;;;;;;;;;;;5034534;28;19970;-85
2023/02/22 14:46:22;;;;;;;;;;;;;;;;;;5031367;28;19921;-86
2023/02/22 14:48:50;;;;;;;;;;;;;;;;;;5026044;28;20016;-85
2023/02/22 14:51:18;;;;;;;;;;;;;;;;;;5028984;28;19921;-85
2023/02/22 14:53:56;;;;;;;;;;;;;;;;;;5027890;28;19936;-84
2023/02/22 14:56:27;;;;;;;;;;;;;;;;;;5026502;28;19928;-85
2023/02/22 14:58:57;;;;;;;;;;;;;;;;;;5026323;28;19921;-84
2023/02/22 15:01:36;;;;;;;;;;;;;;;;;;5025299;28;19932;-84
2023/02/22 15:04:20;;;;;;;;;;;;;;;;;;5025471;28;20000;-84
2023/02/22 15:06:46;;;;;;;;;;;;;;;;;;5027382;28;19925;-85
2023/02/22 15:09:22;;;;;;;;;;;;;;;;;;5027329;28;19917;-84
2023/02/22 15:11:49;;;;;;;;;;;;;;;;;;5025857;28;19927;-84
2023/02/22 15:14:20;;;;;;;;;;;;;;;;;;5024304;28;19925;-85
2023/02/22 15:16:51;;;;;;;;;;;;;;;;;;5028833;28;20306;-84
2023/02/22 15:19:24;;;;;;;;;;;;;;;;;;5029496;28;19924;-85
2023/02/22 15:21:54;;;;;;;;;;;;;;;;;;5029240;28;19948;-84
2023/02/22 15:24:24;;;;;;;;;;;;;;;;;;5035112;28;19923;-83
2023/02/22 15:26:49;;;;;;;;;;;;;;;;;;5033701;28;19971;-83
2023/02/22 15:29:21;;;;;;;;;;;;;;;;;;5031700;28;19917;-86
2023/02/22 15:31:47;;;;;;;;;;;;;;;;;;5032700;28;20008;-82
2023/02/22 15:34:23;;;;;;;;;;;;;;;;;;5037024;28;19984;-85
2023/02/22 15:36:53;;;;;;;;;;;;;;;;;;5029217;28;19921;-83
2023/02/22 15:39:28;;;;;;;;;;;;;;;;;;5037108;28;20335;-83
2023/02/22 15:42:07;;;;;;;;;;;;;;;;;;5017034;28;20393;-84
2023/02/22 15:44:36;;;;;;;;;;;;;;;;;;5023203;28;19924;-85
2023/02/22 15:47:02;;;;;;;;;;;;;;;;;;5036874;28;19917;-84
2023/02/22 15:49:32;;;;;;;;;;;;;;;;;;5036851;28;20376;-84
2023/02/22 15:52:03;;;;;;;;;;;;;;;;;;5036765;28;19986;-84
2023/02/22 15:54:30;;;;;;;;;;;;;;;;;;5034966;28;19917;-83
2023/02/22 15:56:55;;;;;;;;;;;;;;;;;;5036160;28;19917;-84
2023/02/22 15:59:22;;;;;;;;;;;;;;;;;;5035399;28;20078;-84
2023/02/22 16:01:49;;;;;;;;;;;;;;;;;;5035135;28;19924;-83
2023/02/22 16:04:16;;;;;;;;;;;;;;;;;;5036656;28;20015;-83
2023/02/22 16:06:42;;;;;;;;;;;;;;;;;;5033788;28;19921;-83
2023/02/22 16:09:09;;;;;;;;;;;;;;;;;;5015507;28;20020;-84
2023/02/22 16:11:39;;;;;;;;;;;;;;;;;;5033356;28;20356;-83
2023/02/22 16:14:06;;;;;;;;;;;;;;;;;;5036378;28;19999;-84
2023/02/22 16:16:32;;;;;;;;;;;;;;;;;;5035294;28;19963;-83
2023/02/22 16:19:33;;;;;;;;;;;;;;;;;;5017168;28;20008;-84
2023/02/22 16:22:01;;;;;;;;;;;;;;;;;;4994443;28;20004;-84
2023/02/22 16:24:31;;;;;;;;;;;;;;;;;;4994912;28;19924;-84
2023/02/22 16:27:03;;;;;;;;;;;;;;;;;;4993780;28;19922;-84
2023/02/22 16:29:28;;;;;;;;;;;;;;;;;;4988966;28;19929;-84
2023/02/22 16:31:54;;;;;;;;;;;;;;;;;;4988228;28;19925;-85
2023/02/22 16:34:19;;;;;;;;;;;;;;;;;;4974451;28;19918;-84
2023/02/22 16:36:46;;;;;;;;;;;;;;;;;;4990427;28;19918;-85
2023/02/22 16:39:28;;;;;;;;;;;;;;;;;;4996918;28;20033;-84
2023/02/22 16:42:00;;;;;;;;;;;;;;;;;;4994107;28;19933;-83
2023/02/22 16:44:26;;;;;;;;;;;;;;;;;;4978231;28;19984;-84
2023/02/22 16:46:52;;;;;;;;;;;;;;;;;;4994189;28;19922;-84
2023/02/22 16:49:17;;;;;;;;;;;;;;;;;;4994430;28;19980;-83
2023/02/22 16:51:44;;;;;;;;;;;;;;;;;;4994174;28;20373;-84
2023/02/22 16:54:11;;;;;;;;;;;;;;;;;;4994114;28;19922;-84
2023/02/22 16:56:38;;;;;;;;;;;;;;;;;;5026464;28;19921;-84
2023/02/22 16:59:06;;;;;;;;;;;;;;;;;;5034368;28;19928;-83